createdAt,value
2023-02-26T00:01:13.666Z,38.04
2023-02-26T00:03:41.609Z,37.91
2023-02-26T00:06:10.273Z,38.02
2023-02-26T00:08:38.414Z,38.01
2023-02-26T00:11:08.345Z,37.75
2023-02-26T00:13:40.000Z,37.82
2023-02-26T00:16:20.038Z,37.66
2023-02-26T00:18:48.526Z,37.92
2023-02-26T00:21:18.279Z,37.71
2023-02-26T00:23:46.504Z,37.80
2023-02-26T00:26:14.379Z,38.03
2023-02-26T00:28:44.484Z,37.77
2023-02-26T00:31:13.025Z,37.82
2023-02-26T00:33:41.887Z,37.85
2023-02-26T00:36:21.805Z,37.92
2023-02-26T00:39:02.357Z,37.92
2023-02-26T00:41:30.819Z,38.12
2023-02-26T00:44:00.818Z,38.09
2023-02-26T00:46:37.737Z,37.89
2023-02-26T00:49:19.505Z,38.00
2023-02-26T00:51:52.600Z,38.04
2023-02-26T00:54:22.339Z,37.89
2023-02-26T00:56:53.298Z,37.88
2023-02-26T00:59:23.059Z,38.01
2023-02-26T01:01:51.476Z,38.11
2023-02-26T01:04:23.223Z,38.21
2023-02-26T01:06:53.235Z,38.47
2023-02-26T01:09:26.728Z,38.07
2023-02-26T01:11:56.852Z,38.14
2023-02-26T01:14:26.606Z,38.13
2023-02-26T01:17:00.406Z,38.11
2023-02-26T01:19:35.604Z,38.07
2023-02-26T01:22:10.840Z,38.23
2023-02-26T01:24:38.945Z,38.44
2023-02-26T01:27:07.274Z,38.29
2023-02-26T01:29:36.830Z,38.29
2023-02-26T01:32:09.873Z,38.34
2023-02-26T01:34:43.273Z,38.12
2023-02-26T01:37:23.419Z,38.34
2023-02-26T01:40:11.432Z,38.31
2023-02-26T01:42:41.312Z,38.30
2023-02-26T01:45:18.125Z,38.00
2023-02-26T01:47:52.583Z,38.07
2023-02-26T01:50:25.720Z,37.78
2023-02-26T01:53:18.396Z,37.90
2023-02-26T01:55:50.812Z,38.26
2023-02-26T01:58:19.735Z,38.35
2023-02-26T02:00:48.950Z,38.03
2023-02-26T02:03:17.238Z,38.27
2023-02-26T02:05:49.692Z,38.29
2023-02-26T02:08:18.184Z,38.49
2023-02-26T02:10:48.721Z,38.41
2023-02-26T02:13:36.199Z,38.56
2023-02-26T02:16:15.577Z,38.83
2023-02-26T02:18:52.017Z,38.46
2023-02-26T02:21:37.370Z,38.39
2023-02-26T02:24:13.006Z,38.71
2023-02-26T02:26:59.057Z,38.52
2023-02-26T02:29:51.539Z,38.59
2023-02-26T02:32:23.535Z,38.71
2023-02-26T02:34:56.105Z,38.57
2023-02-26T02:37:29.057Z,38.63
2023-02-26T02:39:59.647Z,39.11
2023-02-26T02:42:32.297Z,38.75
2023-02-26T02:45:04.261Z,38.68
2023-02-26T02:47:38.095Z,38.68
2023-02-26T02:50:11.017Z,38.81
2023-02-26T02:52:43.963Z,38.80
2023-02-26T02:55:19.488Z,38.50
2023-02-26T02:57:52.549Z,38.61
2023-02-26T03:00:23.152Z,38.80
2023-02-26T03:03:00.511Z,38.38
2023-02-26T03:05:28.979Z,38.64
2023-02-26T03:07:59.821Z,38.52
2023-02-26T03:10:27.719Z,38.61
2023-02-26T03:12:55.969Z,38.66
2023-02-26T03:15:35.995Z,38.29
2023-02-26T03:18:13.790Z,38.35
2023-02-26T03:20:54.380Z,38.48
2023-02-26T03:23:26.307Z,38.59
2023-02-26T03:25:58.044Z,38.30
2023-02-26T03:28:30.858Z,38.48
2023-02-26T03:31:07.025Z,38.31
2023-02-26T03:33:46.228Z,38.37
2023-02-26T03:36:23.252Z,38.63
2023-02-26T03:39:06.760Z,38.46
2023-02-26T03:41:39.660Z,38.55
2023-02-26T03:44:10.943Z,38.53
2023-02-26T03:46:45.618Z,38.56
2023-02-26T03:49:19.090Z,38.49
2023-02-26T03:51:48.599Z,38.72
2023-02-26T03:54:43.298Z,38.67
2023-02-26T03:57:40.710Z,38.77
2023-02-26T04:00:30.582Z,38.82
2023-02-26T04:03:03.148Z,38.71
2023-02-26T04:05:36.558Z,38.82
2023-02-26T04:08:04.615Z,38.82
2023-02-26T04:10:37.127Z,39.03
2023-02-26T04:13:05.208Z,39.05
2023-02-26T04:15:32.951Z,39.02
2023-02-26T04:18:00.680Z,38.94
2023-02-26T04:20:29.179Z,39.20
2023-02-26T04:22:58.367Z,39.17
2023-02-26T04:25:26.279Z,39.28
2023-02-26T04:27:54.352Z,39.19
2023-02-26T04:30:22.321Z,39.17
2023-02-26T04:32:50.248Z,39.43
2023-02-26T04:35:18.058Z,39.37
2023-02-26T04:37:46.279Z,39.39
2023-02-26T04:40:15.521Z,39.38
2023-02-26T04:42:44.896Z,39.61
2023-02-26T04:45:13.913Z,39.54
2023-02-26T04:47:41.673Z,39.66
2023-02-26T04:50:10.839Z,39.58
2023-02-26T04:52:38.659Z,39.64
2023-02-26T04:55:08.377Z,39.34
2023-02-26T04:57:40.204Z,39.71
2023-02-26T05:00:09.323Z,39.55
2023-02-26T05:02:39.424Z,39.69
2023-02-26T05:05:07.674Z,39.69
2023-02-26T05:07:35.614Z,39.71
2023-02-26T05:10:03.542Z,39.77
2023-02-26T05:12:31.313Z,39.74
2023-02-26T05:15:00.637Z,39.69
2023-02-26T05:17:28.502Z,39.94
2023-02-26T05:19:56.272Z,39.75
2023-02-26T05:22:24.797Z,40.01
2023-02-26T05:24:52.618Z,39.85
2023-02-26T05:27:20.544Z,39.90
2023-02-26T05:29:49.011Z,39.78
2023-02-26T05:32:18.298Z,39.72
2023-02-26T05:34:46.167Z,40.06
2023-02-26T05:37:13.902Z,40.21
2023-02-26T05:39:42.096Z,39.97
2023-02-26T05:42:09.974Z,39.96
2023-02-26T05:44:37.748Z,40.19
2023-02-26T05:47:05.636Z,39.99
2023-02-26T05:49:34.766Z,39.88
2023-02-26T05:52:02.592Z,40.06
2023-02-26T05:54:30.712Z,40.00
2023-02-26T05:56:58.436Z,40.12
2023-02-26T05:59:26.323Z,40.10
2023-02-26T06:01:54.139Z,40.06
2023-02-26T06:04:21.904Z,39.84
2023-02-26T06:06:51.336Z,39.95
2023-02-26T06:09:19.146Z,40.09
2023-02-26T06:11:46.836Z,39.88
2023-02-26T06:14:14.766Z,39.91
2023-02-26T06:16:42.506Z,40.00
2023-02-26T06:19:10.315Z,39.97
2023-02-26T06:21:38.079Z,40.10
2023-02-26T06:24:08.428Z,40.01
2023-02-26T06:26:36.179Z,39.76
2023-02-26T06:29:04.064Z,39.99
2023-02-26T06:31:31.912Z,39.88
2023-02-26T06:33:59.650Z,39.79
2023-02-26T06:36:27.815Z,39.78
2023-02-26T06:38:55.732Z,39.72
2023-02-26T06:41:24.810Z,39.78
2023-02-26T06:43:52.584Z,39.91
2023-02-26T06:46:20.315Z,39.84
2023-02-26T06:48:48.208Z,39.93
2023-02-26T06:51:15.998Z,40.03
2023-02-26T06:53:43.819Z,40.35
2023-02-26T06:56:11.564Z,40.62
2023-02-26T06:58:40.674Z,41.00
2023-02-26T07:01:08.426Z,41.11
2023-02-26T07:03:36.197Z,41.58
2023-02-26T07:06:25.542Z,41.69
2023-02-26T07:08:53.007Z,41.86
2023-02-26T07:11:20.810Z,42.20
2023-02-26T07:13:51.413Z,41.76
2023-02-26T07:16:19.323Z,41.83
2023-02-26T07:18:47.441Z,41.85
2023-02-26T07:21:15.290Z,41.40
2023-02-26T07:23:43.014Z,41.28
2023-02-26T07:26:10.891Z,41.28
2023-02-26T07:28:38.647Z,41.00
2023-02-26T07:31:07.826Z,40.92
2023-02-26T07:33:36.065Z,41.07
2023-02-26T07:36:03.884Z,40.84
2023-02-26T07:38:31.626Z,40.58
2023-02-26T07:40:59.462Z,40.14
2023-02-26T07:43:27.272Z,39.91
2023-02-26T07:45:55.185Z,39.84
2023-02-26T07:48:24.393Z,38.40
2023-02-26T07:50:53.087Z,39.33
2023-02-26T07:53:21.441Z,38.97
2023-02-26T07:55:49.734Z,38.15
2023-02-26T07:58:18.433Z,38.05
2023-02-26T08:00:46.233Z,38.10
2023-02-26T08:03:15.380Z,37.64
2023-02-26T08:05:44.538Z,37.25
2023-02-26T08:08:12.615Z,37.75
2023-02-26T08:10:42.236Z,37.21
2023-02-26T08:13:11.041Z,37.22
2023-02-26T08:15:39.074Z,37.04
2023-02-26T08:18:06.877Z,37.13
2023-02-26T08:20:34.574Z,36.95
2023-02-26T08:23:03.786Z,36.71
2023-02-26T08:25:31.736Z,36.81
2023-02-26T08:27:59.507Z,36.87
2023-02-26T08:30:27.253Z,36.89
2023-02-26T08:32:55.137Z,37.10
2023-02-26T08:35:22.858Z,36.98
2023-02-26T08:37:50.597Z,36.75
2023-02-26T08:40:20.036Z,36.49
2023-02-26T08:42:48.094Z,36.44
2023-02-26T08:45:17.001Z,36.58
2023-02-26T08:47:56.294Z,36.74
2023-02-26T08:50:25.408Z,36.81
2023-02-26T08:52:53.198Z,36.84
2023-02-26T08:55:22.759Z,36.23
2023-02-26T08:57:50.499Z,36.63
2023-02-26T09:00:19.392Z,36.64
2023-02-26T09:02:47.457Z,36.75
2023-02-26T09:05:15.778Z,36.95
2023-02-26T09:07:44.361Z,36.92
2023-02-26T09:10:14.385Z,36.89
2023-02-26T09:12:43.798Z,36.66
2023-02-26T09:15:13.864Z,36.80
2023-02-26T09:17:42.266Z,36.87
2023-02-26T09:20:11.487Z,37.13
2023-02-26T09:22:39.376Z,36.78
2023-02-26T09:25:07.981Z,36.27
2023-02-26T09:27:36.256Z,36.48
2023-02-26T09:30:06.566Z,36.17
2023-02-26T09:32:34.663Z,36.68
2023-02-26T09:35:02.724Z,36.33
2023-02-26T09:37:30.425Z,36.12
2023-02-26T09:39:58.239Z,36.29
2023-02-26T09:42:38.941Z,34.77
2023-02-26T09:45:14.056Z,35.38
2023-02-26T09:47:46.990Z,34.93
2023-02-26T09:50:19.885Z,34.80
2023-02-26T09:52:54.583Z,33.94
2023-02-26T09:55:29.614Z,33.76
2023-02-26T09:58:00.484Z,35.50
2023-02-26T10:00:39.526Z,33.94
2023-02-26T10:03:20.949Z,32.69
2023-02-26T10:06:05.480Z,33.54
2023-02-26T10:08:43.896Z,32.88
2023-02-26T10:11:19.760Z,34.12
2023-02-26T10:13:57.608Z,34.08
2023-02-26T10:16:32.292Z,32.81
2023-02-26T10:19:05.758Z,34.18
2023-02-26T10:21:40.225Z,34.00
2023-02-26T10:24:14.655Z,33.87
2023-02-26T10:26:46.263Z,33.01
2023-02-26T10:29:23.429Z,32.62
2023-02-26T10:32:04.695Z,32.28
2023-02-26T10:34:37.684Z,33.26
2023-02-26T10:37:17.087Z,32.37
2023-02-26T10:39:51.474Z,31.52
2023-02-26T10:42:24.024Z,32.28
2023-02-26T10:45:06.685Z,32.03
2023-02-26T10:47:47.235Z,32.47
2023-02-26T10:50:17.530Z,33.35
2023-02-26T10:52:46.685Z,32.83
2023-02-26T10:55:33.390Z,30.81
2023-02-26T10:58:06.669Z,31.66
2023-02-26T11:00:36.255Z,33.07
2023-02-26T11:03:08.281Z,33.11
2023-02-26T11:05:36.364Z,33.20
2023-02-26T11:08:06.953Z,33.01
2023-02-26T11:10:43.070Z,31.42
2023-02-26T11:13:11.410Z,33.04
2023-02-26T11:15:39.232Z,33.07
2023-02-26T11:18:16.954Z,31.52
2023-02-26T11:20:46.978Z,32.75
2023-02-26T11:23:20.902Z,32.06
2023-02-26T11:25:54.294Z,32.11
2023-02-26T11:28:25.825Z,32.35
2023-02-26T11:30:54.524Z,32.71
2023-02-26T11:33:30.748Z,31.32
2023-02-26T11:36:02.322Z,32.39
2023-02-26T11:38:30.594Z,32.77
2023-02-26T11:40:59.334Z,32.80
2023-02-26T11:43:34.998Z,31.81
2023-02-26T11:46:05.773Z,31.78
2023-02-26T11:48:42.090Z,30.59
2023-02-26T11:51:16.425Z,31.06
2023-02-26T11:53:50.067Z,29.96
2023-02-26T11:56:26.845Z,29.09
2023-02-26T11:58:56.359Z,31.14
2023-02-26T12:01:29.354Z,30.27
2023-02-26T12:04:02.846Z,29.72
2023-02-26T12:06:31.852Z,30.63
2023-02-26T12:09:00.158Z,30.64
2023-02-26T12:11:44.778Z,29.64
2023-02-26T12:14:31.448Z,30.04
2023-02-26T12:17:12.396Z,30.09
2023-02-26T12:19:50.168Z,29.64
2023-02-26T12:22:43.761Z,27.90
2023-02-26T12:25:23.706Z,28.82
2023-02-26T12:28:10.072Z,28.80
2023-02-26T12:30:59.435Z,26.44
2023-02-26T12:33:38.537Z,28.30
2023-02-26T12:36:28.305Z,27.74
2023-02-26T12:39:13.058Z,27.81
2023-02-26T12:42:00.115Z,28.74
2023-02-26T12:44:49.993Z,27.63
2023-02-26T12:47:34.023Z,28.37
2023-02-26T12:50:23.161Z,29.08
2023-02-26T12:53:19.254Z,27.83
2023-02-26T12:56:00.327Z,26.27
2023-02-26T12:58:42.996Z,27.79
2023-02-26T13:01:37.295Z,27.10
2023-02-26T13:04:27.055Z,27.29
2023-02-26T13:07:11.692Z,28.08
2023-02-26T13:09:50.534Z,26.83
2023-02-26T13:12:29.920Z,27.54
2023-02-26T13:15:05.594Z,28.41
2023-02-26T13:17:43.838Z,27.76
2023-02-26T13:20:16.386Z,28.66
2023-02-26T13:22:48.245Z,28.70
2023-02-26T13:25:26.118Z,27.95
2023-02-26T13:27:56.015Z,28.58
2023-02-26T13:30:28.405Z,27.16
2023-02-26T13:32:58.682Z,28.00
2023-02-26T13:35:31.017Z,27.25
2023-02-26T13:38:02.761Z,28.22
2023-02-26T13:40:43.848Z,26.92
2023-02-26T13:43:23.016Z,27.01
2023-02-26T13:45:58.564Z,27.12
2023-02-26T13:48:40.650Z,27.86
2023-02-26T13:51:13.918Z,27.58
2023-02-26T13:53:54.449Z,26.79
2023-02-26T13:56:40.129Z,27.46
2023-02-26T13:59:38.300Z,26.23
2023-02-26T14:02:50.927Z,26.13
2023-02-26T14:05:50.780Z,26.55
2023-02-26T14:08:46.503Z,26.62
2023-02-26T14:11:42.015Z,26.99
2023-02-26T14:14:20.266Z,27.06
2023-02-26T14:16:53.932Z,28.09
2023-02-26T14:19:25.421Z,28.47
2023-02-26T14:21:57.677Z,28.40
2023-02-26T14:24:36.883Z,27.59
2023-02-26T14:27:10.065Z,26.56
2023-02-26T14:29:41.217Z,26.70
2023-02-26T14:32:23.700Z,26.96
2023-02-26T14:34:55.092Z,28.13
2023-02-26T14:37:25.653Z,27.89
2023-02-26T14:39:58.798Z,28.05
2023-02-26T14:42:34.933Z,27.31
2023-02-26T14:45:11.849Z,27.34
2023-02-26T14:47:40.219Z,27.53
2023-02-26T14:50:09.447Z,27.18
2023-02-26T14:52:52.487Z,26.71
2023-02-26T14:55:36.473Z,25.76
2023-02-26T14:58:18.387Z,26.05
2023-02-26T15:00:54.381Z,27.10
2023-02-26T15:03:56.928Z,25.66
2023-02-26T15:06:51.752Z,26.67
2023-02-26T15:09:24.126Z,27.84
2023-02-26T15:12:08.419Z,26.88
2023-02-26T15:14:51.750Z,27.41
2023-02-26T15:17:27.903Z,27.29
2023-02-26T15:20:09.688Z,27.26
2023-02-26T15:22:54.212Z,27.38
2023-02-26T15:25:30.320Z,27.66
2023-02-26T15:27:58.442Z,28.07
2023-02-26T15:30:26.809Z,28.01
2023-02-26T15:33:00.122Z,27.21
2023-02-26T15:35:30.386Z,27.80
2023-02-26T15:38:01.309Z,27.75
2023-02-26T15:40:32.896Z,27.93
2023-02-26T15:43:02.326Z,28.16
2023-02-26T15:45:36.029Z,27.06
2023-02-26T15:48:08.725Z,27.77
2023-02-26T15:50:40.665Z,28.01
2023-02-26T15:53:12.592Z,27.67
2023-02-26T15:55:47.888Z,27.77
2023-02-26T15:58:21.650Z,27.78
2023-02-26T16:00:54.963Z,27.62
2023-02-26T16:03:33.184Z,27.21
2023-02-26T16:06:01.134Z,28.35
2023-02-26T16:08:29.414Z,28.36
2023-02-26T16:11:01.306Z,28.35
2023-02-26T16:13:32.151Z,28.37
2023-02-26T16:16:02.574Z,28.62
2023-02-26T16:18:33.845Z,28.07
2023-02-26T16:21:05.185Z,28.53
2023-02-26T16:23:43.755Z,27.77
2023-02-26T16:26:17.842Z,28.34
2023-02-26T16:28:47.507Z,28.78
2023-02-26T16:31:21.522Z,28.06
2023-02-26T16:33:58.617Z,28.05
2023-02-26T16:36:31.053Z,28.77
2023-02-26T16:39:14.581Z,28.66
2023-02-26T16:41:42.489Z,28.95
2023-02-26T16:44:39.122Z,27.86
2023-02-26T16:47:10.743Z,29.03
2023-02-26T16:49:42.119Z,28.88
2023-02-26T16:52:17.417Z,29.04
2023-02-26T16:54:54.969Z,28.80
2023-02-26T16:57:27.343Z,29.13
2023-02-26T16:59:58.038Z,28.90
2023-02-26T17:02:28.773Z,29.34
2023-02-26T17:05:02.385Z,28.76
2023-02-26T17:07:33.582Z,29.22
2023-02-26T17:10:20.747Z,28.10
2023-02-26T17:12:51.149Z,29.31
2023-02-26T17:15:21.385Z,29.32
2023-02-26T17:17:49.573Z,29.68
2023-02-26T17:20:19.051Z,29.53
2023-02-26T17:22:46.799Z,29.67
2023-02-26T17:25:17.672Z,29.60
2023-02-26T17:27:46.871Z,29.63
2023-02-26T17:30:17.535Z,29.69
2023-02-26T17:32:45.841Z,29.91
2023-02-26T17:35:14.770Z,29.76
2023-02-26T17:37:44.949Z,29.88
2023-02-26T17:40:21.394Z,29.38
2023-02-26T17:42:49.330Z,30.01
2023-02-26T17:45:17.445Z,29.85
2023-02-26T17:47:47.414Z,30.12
2023-02-26T17:50:36.494Z,29.77
2023-02-26T17:53:06.286Z,30.24
2023-02-26T17:55:35.622Z,30.43
2023-02-26T17:58:03.404Z,30.37
2023-02-26T18:00:31.466Z,30.52
2023-02-26T18:02:59.358Z,30.66
2023-02-26T18:05:27.676Z,30.66
2023-02-26T18:07:55.617Z,30.63
2023-02-26T18:10:25.535Z,30.74
2023-02-26T18:12:53.299Z,30.88
2023-02-26T18:15:21.043Z,31.08
2023-02-26T18:17:49.366Z,31.09
2023-02-26T18:20:19.371Z,30.98
2023-02-26T18:22:48.119Z,31.24
2023-02-26T18:25:16.753Z,31.34
2023-02-26T18:27:49.404Z,31.22
2023-02-26T18:30:24.522Z,31.30
2023-02-26T18:32:52.607Z,31.39
2023-02-26T18:35:20.326Z,31.42
2023-02-26T18:37:48.231Z,31.46
2023-02-26T18:40:18.124Z,31.78
2023-02-26T18:42:47.399Z,31.26
2023-02-26T18:45:15.868Z,31.56
2023-02-26T18:47:44.696Z,31.52
2023-02-26T18:50:14.648Z,31.72
2023-02-26T18:52:43.190Z,31.60
2023-02-26T18:55:12.361Z,31.42
2023-02-26T18:57:42.397Z,31.21
2023-02-26T19:00:14.713Z,31.21
2023-02-26T19:02:43.153Z,31.37
2023-02-26T19:05:12.407Z,31.36
2023-02-26T19:07:42.602Z,31.37
2023-02-26T19:10:14.569Z,31.56
2023-02-26T19:12:42.530Z,31.45
2023-02-26T19:15:13.748Z,31.62
2023-02-26T19:17:42.358Z,31.74
2023-02-26T19:20:11.292Z,31.82
2023-02-26T19:22:39.453Z,31.90
2023-02-26T19:25:08.373Z,31.98
2023-02-26T19:27:36.526Z,31.99
2023-02-26T19:30:05.191Z,32.23
2023-02-26T19:32:34.448Z,32.00
2023-02-26T19:35:02.222Z,31.90
2023-02-26T19:37:29.986Z,32.18
2023-02-26T19:39:57.766Z,32.05
2023-02-26T19:42:28.257Z,32.05
2023-02-26T19:44:56.031Z,32.21
2023-02-26T19:47:23.947Z,32.04
2023-02-26T19:49:53.180Z,32.22
2023-02-26T19:52:20.941Z,32.32
2023-02-26T19:54:48.747Z,32.48
2023-02-26T19:57:16.575Z,32.56
2023-02-26T19:59:44.663Z,32.63
2023-02-26T20:02:12.684Z,32.37
2023-02-26T20:04:40.621Z,32.63
2023-02-26T20:07:09.995Z,32.49
2023-02-26T20:09:37.974Z,32.69
2023-02-26T20:12:06.276Z,32.49
2023-02-26T20:14:34.512Z,32.46
2023-02-26T20:17:02.448Z,32.50
2023-02-26T20:19:30.404Z,32.90
2023-02-26T20:21:58.293Z,32.61
2023-02-26T20:24:27.645Z,32.77
2023-02-26T20:26:55.505Z,32.80
2023-02-26T20:29:23.600Z,32.86
2023-02-26T20:31:51.738Z,32.73
2023-02-26T20:34:20.283Z,32.87
2023-02-26T20:36:50.095Z,32.75
2023-02-26T20:39:19.456Z,32.75
2023-02-26T20:41:48.822Z,32.57
2023-02-26T20:44:16.751Z,32.95
2023-02-26T20:46:44.642Z,32.88
2023-02-26T20:49:12.996Z,32.94
2023-02-26T20:51:41.379Z,32.92
2023-02-26T20:54:09.658Z,33.04
2023-02-26T20:56:40.758Z,32.83
2023-02-26T20:59:10.299Z,33.16
2023-02-26T21:01:38.337Z,33.26
2023-02-26T21:04:09.763Z,32.94
2023-02-26T21:06:38.351Z,32.97
2023-02-26T21:09:08.639Z,32.97
2023-02-26T21:11:37.168Z,32.92
2023-02-26T21:14:07.451Z,33.13
2023-02-26T21:16:37.214Z,32.84
2023-02-26T21:19:05.053Z,33.33
2023-02-26T21:21:33.320Z,33.29
2023-02-26T21:24:01.282Z,33.21
2023-02-26T21:26:29.097Z,33.15
2023-02-26T21:28:56.948Z,33.19
2023-02-26T21:31:24.872Z,33.21
2023-02-26T21:33:54.198Z,33.18
2023-02-26T21:36:22.759Z,33.39
2023-02-26T21:38:50.601Z,33.52
2023-02-26T21:41:18.413Z,33.54
2023-02-26T21:43:47.797Z,33.47
2023-02-26T21:46:15.743Z,33.68
2023-02-26T21:48:46.173Z,33.51
2023-02-26T21:51:15.709Z,33.33
2023-02-26T21:53:45.171Z,33.58
2023-02-26T21:56:13.115Z,33.85
2023-02-26T21:58:44.319Z,33.75
2023-02-26T22:01:12.184Z,33.95
2023-02-26T22:03:40.460Z,33.96
2023-02-26T22:06:08.496Z,33.92
2023-02-26T22:08:37.635Z,33.91
2023-02-26T22:11:05.941Z,34.10
2023-02-26T22:13:33.961Z,33.92
2023-02-26T22:16:01.777Z,34.09
2023-02-26T22:18:29.573Z,33.99
2023-02-26T22:20:57.493Z,34.27
2023-02-26T22:23:25.320Z,33.92
2023-02-26T22:25:54.520Z,34.01
2023-02-26T22:28:22.280Z,34.17
2023-02-26T22:30:51.491Z,34.09
2023-02-26T22:33:19.567Z,34.27
2023-02-26T22:35:47.644Z,34.21
2023-02-26T22:38:15.468Z,34.30
2023-02-26T22:40:43.276Z,34.22
2023-02-26T22:43:12.468Z,34.30
2023-02-26T22:45:40.366Z,34.25
2023-02-26T22:48:08.424Z,34.36
2023-02-26T22:50:36.457Z,34.39
2023-02-26T22:53:04.658Z,34.33
2023-02-26T22:55:32.696Z,34.33
2023-02-26T22:58:00.681Z,34.36
2023-02-26T23:00:30.073Z,34.37
2023-02-26T23:02:57.893Z,34.42
2023-02-26T23:05:25.810Z,34.44
2023-02-26T23:07:53.631Z,34.62
2023-02-26T23:10:21.743Z,34.60
2023-02-26T23:12:50.012Z,34.60
2023-02-26T23:15:17.812Z,34.72
2023-02-26T23:17:47.006Z,34.76
2023-02-26T23:20:17.122Z,34.78
2023-02-26T23:22:44.990Z,34.64
2023-02-26T23:25:13.328Z,34.84
2023-02-26T23:27:41.542Z,34.75
2023-02-26T23:30:10.660Z,34.84
2023-02-26T23:32:38.823Z,34.71
2023-02-26T23:35:08.693Z,34.91
2023-02-26T23:37:36.509Z,34.90
2023-02-26T23:40:05.637Z,34.57
2023-02-26T23:42:33.475Z,34.93
2023-02-26T23:45:01.486Z,34.59
2023-02-26T23:47:29.296Z,34.57
2023-02-26T23:49:57.104Z,35.05
2023-02-26T23:52:26.362Z,34.63
2023-02-26T23:54:54.436Z,34.81
2023-02-26T23:57:22.308Z,34.78
2023-02-26T23:59:50.186Z,34.83
